Time;durP1;ratioP1;P1;durP2;ratioP2;P2;SDS_P1;SDS_P2;PMS_P1;PMS_P2;Temp;Humidity;BMP_temperature;BMP_pressure;BME280_temperature;BME280_humidity;BME280_pressure;Samples;Min_cycle;Max_cycle;Signal;HPM_P1;HPM_P2
2023/05/17 00:00:50;;;;;;;0.60;0.60;;;7.60;99.90;;;;;;5068585;28;20136;-75
2023/05/17 00:03:16;;;;;;;0.60;0.60;;;7.60;99.90;;;;;;5068813;28;20048;-74
2023/05/17 00:05:41;;;;;;;0.93;0.93;;;7.70;99.90;;;;;;5051928;28;20124;-75
2023/05/17 00:08:07;;;;;;;0.80;0.80;;;7.70;99.90;;;;;;5067302;28;20090;-74
2023/05/17 00:10:33;;;;;;;0.50;0.50;;;7.80;99.90;;;;;;5067902;28;20046;-74
2023/05/17 00:12:58;;;;;;;0.50;0.50;;;7.80;99.90;;;;;;5050912;28;20041;-75
2023/05/17 00:15:24;;;;;;;0.50;0.50;;;7.80;99.90;;;;;;5067713;28;20048;-75
2023/05/17 00:17:50;;;;;;;0.93;0.70;;;7.80;99.90;;;;;;5068462;28;20101;-75
2023/05/17 00:20:15;;;;;;;0.63;0.63;;;7.80;99.90;;;;;;5051761;28;20044;-75
2023/05/17 00:22:42;;;;;;;0.50;0.50;;;7.80;99.90;;;;;;5068826;28;20469;-75
2023/05/17 00:25:08;;;;;;;0.50;0.50;;;7.70;99.90;;;;;;5068436;28;20056;-76
2023/05/17 00:27:33;;;;;;;0.50;0.50;;;7.70;99.90;;;;;;5068647;28;20068;-75
2023/05/17 00:29:59;;;;;;;0.50;0.50;;;7.60;99.90;;;;;;5081336;28;20047;-75
2023/05/17 00:32:25;;;;;;;0.63;0.63;;;7.50;99.90;;;;;;5088152;28;20584;-76
2023/05/17 00:34:50;;;;;;;1.10;0.70;;;7.50;99.90;;;;;;5089323;28;20059;-75
2023/05/17 00:37:16;;;;;;;0.70;0.70;;;7.40;99.90;;;;;;5067852;28;20052;-76
2023/05/17 00:39:42;;;;;;;0.60;0.60;;;7.40;99.90;;;;;;5068258;28;20436;-76
2023/05/17 00:42:08;;;;;;;0.55;0.55;;;7.40;99.90;;;;;;5070048;28;20040;-75
2023/05/17 00:44:34;;;;;;;1.15;1.15;;;7.40;99.90;;;;;;5061720;28;20041;-75
2023/05/17 00:47:01;;;;;;;;;;;7.50;99.90;;;;;;5067720;28;20056;-75
2023/05/17 00:49:28;;;;;;;10.45;1.60;;;7.50;99.90;;;;;;5068111;28;19924;-75
2023/05/17 00:51:54;;;;;;;0.57;0.57;;;7.60;99.90;;;;;;5066676;28;20053;-75
2023/05/17 00:54:21;;;;;;;0.70;0.70;;;7.70;99.90;;;;;;5067997;28;20045;-75
2023/05/17 00:56:48;;;;;;;0.60;0.60;;;7.70;99.90;;;;;;5067901;28;20090;-75
2023/05/17 00:59:14;;;;;;;0.50;0.50;;;7.70;99.90;;;;;;5067159;28;20059;-76
2023/05/17 01:01:41;;;;;;;0.50;0.50;;;7.80;99.90;;;;;;5067606;28;20401;-76
2023/05/17 01:04:08;;;;;;;1.05;1.05;;;7.80;99.90;;;;;;5067198;28;20123;-75
2023/05/17 01:06:35;;;;;;;0.80;0.80;;;7.70;99.90;;;;;;5066916;28;20041;-75
2023/05/17 01:09:01;;;;;;;0.40;0.40;;;7.80;99.90;;;;;;5049930;28;20047;-75
2023/05/17 01:11:34;;;;;;;;;;;7.70;99.90;;;;;;5055111;28;20049;-75
2023/05/17 01:14:11;;;;;;;0.50;0.50;;;7.60;99.90;;;;;;5052872;28;19926;-75
2023/05/17 01:16:43;;;;;;;0.45;0.45;;;7.60;99.90;;;;;;5067608;28;20063;-75
2023/05/17 01:19:19;;;;;;;0.43;0.43;;;7.60;99.90;;;;;;5067248;28;20437;-76
2023/05/17 01:22:05;;;;;;;0.45;0.45;;;7.60;99.90;;;;;;5066728;28;20049;-75
2023/05/17 01:24:52;;;;;;;1.30;1.20;;;7.70;99.90;;;;;;5067299;28;20114;-76
2023/05/17 01:27:19;;;;;;;0.90;0.90;;;7.60;99.90;;;;;;5052710;28;20044;-75
2023/05/17 01:29:46;;;;;;;2.72;1.50;;;7.70;99.90;;;;;;5070976;28;20051;-75
2023/05/17 01:32:13;;;;;;;0.45;0.45;;;7.70;99.90;;;;;;5070702;28;20058;-75
2023/05/17 01:34:40;;;;;;;0.40;0.40;;;7.80;99.90;;;;;;5071397;28;20048;-76
2023/05/17 01:37:06;;;;;;;0.38;0.38;;;7.90;99.90;;;;;;5070723;28;20059;-76
2023/05/17 01:39:31;;;;;;;0.98;0.98;;;7.90;99.90;;;;;;5054425;28;20129;-76
2023/05/17 01:42:20;;;;;;;0.57;0.57;;;7.90;99.90;;;;;;5071757;28;20037;-76
2023/05/17 01:45:01;;;;;;;0.50;0.50;;;7.90;99.90;;;;;;5080333;28;20222;-75
2023/05/17 01:47:51;;;;;;;0.57;0.57;;;7.90;99.90;;;;;;5070970;28;20455;-76
2023/05/17 01:50:23;;;;;;;0.50;0.50;;;7.80;99.90;;;;;;5050430;28;20052;-76
2023/05/17 01:53:17;;;;;;;0.40;0.40;;;7.80;99.90;;;;;;5069797;28;20397;-76
2023/05/17 01:55:52;;;;;;;0.50;0.50;;;7.70;99.90;;;;;;5070837;28;20041;-76
2023/05/17 01:58:20;;;;;;;0.40;0.40;;;7.60;99.90;;;;;;5070354;28;20052;-76
2023/05/17 02:00:48;;;;;;;0.70;0.70;;;7.60;99.90;;;;;;5070304;28;20044;-77
2023/05/17 02:03:20;;;;;;;0.50;0.50;;;7.50;99.90;;;;;;5069712;28;20048;-76
2023/05/17 02:05:46;;;;;;;0.50;0.50;;;7.40;99.90;;;;;;5053985;28;20044;-76
2023/05/17 02:08:12;;;;;;;0.47;0.47;;;7.40;99.90;;;;;;5052644;28;20040;-76
2023/05/17 02:10:38;;;;;;;;;;;7.40;99.90;;;;;;5054035;28;20123;-76
2023/05/17 02:13:04;;;;;;;0.40;0.40;;;7.30;99.90;;;;;;5053278;28;20057;-77
2023/05/17 02:15:30;;;;;;;0.57;0.57;;;7.30;99.90;;;;;;5070455;28;20044;-75
2023/05/17 02:17:57;;;;;;;0.80;0.80;;;7.30;99.90;;;;;;5070310;28;20584;-76
2023/05/17 02:20:23;;;;;;;0.55;0.55;;;7.30;99.90;;;;;;5069896;28;20100;-76
2023/05/17 02:22:48;;;;;;;0.40;0.40;;;7.20;99.90;;;;;;5069418;28;20040;-76
2023/05/17 02:25:14;;;;;;;0.40;0.40;;;7.30;99.90;;;;;;5101044;28;20646;-76
2023/05/17 02:27:40;;;;;;;0.50;0.50;;;7.30;99.90;;;;;;5069912;28;20048;-76
2023/05/17 02:30:07;;;;;;;0.50;0.50;;;7.30;99.90;;;;;;5069807;28;20040;-76
2023/05/17 02:32:32;;;;;;;0.28;0.28;;;7.30;99.90;;;;;;5069677;28;20057;-76
2023/05/17 02:34:58;;;;;;;0.50;0.50;;;7.30;99.90;;;;;;5069577;28;20047;-75
2023/05/17 02:37:24;;;;;;;0.50;0.50;;;7.30;99.90;;;;;;5051926;28;20478;-75
2023/05/17 02:39:50;;;;;;;0.50;0.50;;;7.30;99.90;;;;;;5069490;28;20048;-76
2023/05/17 02:42:16;;;;;;;0.40;0.40;;;7.30;99.90;;;;;;5073656;28;20434;-75
2023/05/17 02:44:42;;;;;;;1.75;1.13;;;7.20;99.90;;;;;;5079505;28;20066;-75
2023/05/17 02:47:08;;;;;;;0.40;0.40;;;7.20;99.90;;;;;;5069250;28;20036;-75
2023/05/17 02:49:34;;;;;;;0.40;0.40;;;7.20;99.90;;;;;;5069854;28;20044;-76
2023/05/17 02:52:01;;;;;;;;;;;7.20;99.90;;;;;;5069652;28;20055;-75
2023/05/17 02:54:26;;;;;;;0.50;0.50;;;7.20;99.90;;;;;;5052619;28;19920;-76
2023/05/17 02:56:52;;;;;;;0.50;0.50;;;7.10;99.90;;;;;;5069664;28;20036;-75
2023/05/17 02:59:18;;;;;;;0.50;0.50;;;7.10;99.90;;;;;;5069033;28;20512;-76
2023/05/17 03:01:43;;;;;;;0.60;0.60;;;7.10;99.90;;;;;;5069358;28;20080;-75
2023/05/17 03:04:09;;;;;;;0.50;0.50;;;7.10;99.90;;;;;;5052097;28;20478;-76
2023/05/17 03:06:36;;;;;;;1.73;1.63;;;7.10;99.90;;;;;;5069161;28;20051;-76
2023/05/17 03:09:02;;;;;;;0.65;0.65;;;7.10;99.90;;;;;;5069172;28;20075;-75
2023/05/17 03:11:28;;;;;;;0.50;0.50;;;7.10;99.90;;;;;;5069329;28;20347;-76
2023/05/17 03:13:53;;;;;;;1.98;1.58;;;7.10;99.90;;;;;;5069427;28;20036;-75
2023/05/17 03:16:19;;;;;;;0.50;0.50;;;7.10;99.90;;;;;;5068989;28;20044;-75
2023/05/17 03:18:45;;;;;;;0.43;0.43;;;7.20;99.90;;;;;;5083150;28;20079;-75
2023/05/17 03:21:10;;;;;;;0.47;0.47;;;7.30;99.90;;;;;;5106408;28;20109;-76
2023/05/17 03:23:36;;;;;;;0.30;0.30;;;7.30;99.90;;;;;;5106767;28;20070;-76
2023/05/17 03:26:02;;;;;;;0.47;0.47;;;7.30;99.90;;;;;;5076596;28;20132;-75
2023/05/17 03:28:28;;;;;;;0.43;0.43;;;7.30;99.90;;;;;;5052256;28;20037;-75
2023/05/17 03:30:53;;;;;;;0.60;0.60;;;7.30;99.90;;;;;;5051405;28;20033;-75
2023/05/17 03:33:19;;;;;;;0.70;0.70;;;7.40;99.90;;;;;;5067736;28;20144;-75
2023/05/17 03:35:47;;;;;;;0.50;0.50;;;7.40;99.90;;;;;;5051309;28;20048;-75
2023/05/17 03:38:13;;;;;;;1.05;1.00;;;7.40;99.90;;;;;;5067366;28;20037;-75
2023/05/17 03:40:40;;;;;;;0.40;0.40;;;7.50;99.90;;;;;;5068556;28;20048;-76
2023/05/17 03:43:06;;;;;;;0.60;0.60;;;7.50;99.90;;;;;;5079318;28;20557;-76
2023/05/17 03:45:31;;;;;;;0.47;0.47;;;7.50;99.90;;;;;;5089387;28;20492;-75
2023/05/17 03:47:57;;;;;;;0.47;0.47;;;7.60;99.90;;;;;;5052156;28;20063;-75
2023/05/17 03:50:23;;;;;;;1.35;0.80;;;7.60;99.90;;;;;;5067693;28;20379;-75
2023/05/17 03:52:48;;;;;;;0.50;0.50;;;7.60;99.90;;;;;;5068694;28;20040;-74
2023/05/17 03:55:14;;;;;;;0.50;0.50;;;7.50;99.90;;;;;;5067328;28;20043;-75
2023/05/17 03:57:40;;;;;;;0.47;0.47;;;7.60;99.90;;;;;;5068729;28;20059;-76
2023/05/17 04:00:10;;;;;;;0.45;0.45;;;7.60;99.90;;;;;;5055441;28;20563;-75
2023/05/17 04:02:36;;;;;;;0.30;0.30;;;7.60;99.90;;;;;;5048454;28;20041;-76
2023/05/17 04:05:02;;;;;;;;;;;7.60;99.90;;;;;;5032380;28;20136;-75
2023/05/17 04:07:28;;;;;;;0.40;0.40;;;7.60;99.90;;;;;;5031554;28;20417;-76
2023/05/17 04:09:57;;;;;;;0.35;0.35;;;7.60;99.90;;;;;;5048704;28;20122;-76
2023/05/17 04:12:23;;;;;;;0.45;0.45;;;7.60;99.90;;;;;;5049098;28;20071;-76
2023/05/17 04:14:49;;;;;;;0.63;0.63;;;7.60;99.90;;;;;;5072857;28;20047;-76
2023/05/17 04:17:15;;;;;;;0.40;0.40;;;7.60;99.90;;;;;;5105330;28;20040;-75
2023/05/17 04:19:40;;;;;;;0.40;0.40;;;7.70;99.90;;;;;;5089582;28;20105;-75
2023/05/17 04:22:06;;;;;;;0.88;0.88;;;7.70;99.90;;;;;;5054547;28;20126;-76
2023/05/17 04:24:32;;;;;;;0.60;0.60;;;7.70;99.90;;;;;;5071454;28;20397;-76
2023/05/17 04:26:58;;;;;;;0.40;0.40;;;7.60;99.90;;;;;;5105989;28;20036;-76
2023/05/17 04:29:25;;;;;;;0.60;0.60;;;7.70;99.90;;;;;;5105459;28;20062;-75
2023/05/17 04:31:51;;;;;;;0.43;0.43;;;7.60;99.90;;;;;;5088848;28;20048;-76
2023/05/17 04:34:16;;;;;;;0.60;0.60;;;7.60;99.90;;;;;;5077968;28;20053;-76
2023/05/17 04:36:42;;;;;;;0.43;0.43;;;7.60;99.90;;;;;;5068191;28;20468;-76
2023/05/17 04:39:08;;;;;;;0.47;0.47;;;7.70;99.90;;;;;;5051392;28;20040;-75
2023/05/17 04:41:33;;;;;;;0.50;0.50;;;7.70;99.90;;;;;;5068427;28;20490;-75
2023/05/17 04:43:59;;;;;;;0.60;0.60;;;7.70;99.90;;;;;;5081963;28;20482;-76
2023/05/17 04:46:25;;;;;;;0.60;0.60;;;7.80;99.90;;;;;;5067625;28;20407;-76
2023/05/17 04:48:52;;;;;;;;;;;7.90;99.90;;;;;;5068006;28;20044;-76
2023/05/17 04:51:18;;;;;;;0.50;0.50;;;7.90;99.90;;;;;;5067305;28;19920;-76
2023/05/17 04:53:43;;;;;;;0.40;0.40;;;8.00;99.90;;;;;;5051353;28;20383;-75
2023/05/17 04:56:09;;;;;;;0.50;0.50;;;8.00;99.90;;;;;;5057071;28;20033;-75
2023/05/17 04:58:35;;;;;;;0.40;0.40;;;8.10;99.90;;;;;;5048244;28;20046;-76
2023/05/17 05:01:00;;;;;;;0.50;0.50;;;8.10;99.90;;;;;;5049581;28;20394;-75
2023/05/17 05:03:26;;;;;;;0.50;0.50;;;8.20;99.90;;;;;;5034298;28;20139;-76
2023/05/17 05:05:52;;;;;;;0.60;0.60;;;8.20;99.90;;;;;;5052171;28;20041;-75
2023/05/17 05:08:17;;;;;;;0.47;0.47;;;8.20;99.90;;;;;;5051955;28;20040;-76
2023/05/17 05:10:43;;;;;;;0.40;0.40;;;8.20;99.90;;;;;;5069262;28;20040;-75
2023/05/17 05:13:09;;;;;;;0.40;0.40;;;8.20;99.90;;;;;;5059130;28;20044;-75
2023/05/17 05:15:35;;;;;;;0.50;0.50;;;8.30;99.90;;;;;;5040276;28;20041;-76
2023/05/17 05:18:00;;;;;;;0.40;0.40;;;8.30;99.90;;;;;;5072008;28;20210;-76
2023/05/17 05:20:26;;;;;;;0.93;0.93;;;8.30;99.90;;;;;;5054716;28;20045;-76
2023/05/17 05:22:52;;;;;;;0.50;0.50;;;8.30;99.90;;;;;;5054929;28;20055;-76
2023/05/17 05:25:17;;;;;;;0.40;0.40;;;8.30;99.90;;;;;;5054134;28;20060;-76
2023/05/17 05:27:43;;;;;;;0.60;0.60;;;8.40;99.90;;;;;;5071084;28;20060;-76
2023/05/17 05:30:09;;;;;;;0.50;0.50;;;8.40;99.90;;;;;;5070597;28;20044;-75
2023/05/17 05:32:36;;;;;;;0.50;0.50;;;8.40;99.90;;;;;;5054623;28;20045;-75
2023/05/17 05:35:04;;;;;;;0.50;0.50;;;8.40;99.90;;;;;;5071164;28;20052;-75
2023/05/17 05:37:30;;;;;;;0.60;0.60;;;8.40;99.90;;;;;;5053953;28;20075;-75
2023/05/17 05:39:56;;;;;;;;;;;8.30;99.90;;;;;;5071704;28;20128;-77
2023/05/17 05:42:22;;;;;;;0.40;0.40;;;8.30;99.90;;;;;;5075222;28;20440;-76
2023/05/17 05:44:47;;;;;;;0.60;0.60;;;8.30;99.90;;;;;;5080611;28;20055;-76
2023/05/17 05:47:13;;;;;;;0.50;0.50;;;8.40;99.90;;;;;;5070892;28;20036;-76
2023/05/17 05:49:38;;;;;;;0.38;0.38;;;8.50;99.90;;;;;;5070827;28;20473;-75
2023/05/17 05:52:04;;;;;;;0.45;0.45;;;8.60;99.90;;;;;;5054078;28;20082;-75
2023/05/17 05:54:30;;;;;;;0.52;0.52;;;8.80;99.90;;;;;;5069906;28;20056;-75
2023/05/17 05:56:56;;;;;;;0.30;0.30;;;8.90;99.90;;;;;;5070674;28;20098;-76
2023/05/17 05:59:21;;;;;;;0.63;0.63;;;9.00;99.90;;;;;;5070497;28;20044;-75
2023/05/17 06:01:47;;;;;;;0.40;0.40;;;9.10;99.90;;;;;;5070735;28;20135;-75
2023/05/17 06:04:13;;;;;;;0.60;0.60;;;9.10;99.90;;;;;;5070243;28;20052;-75
2023/05/17 06:06:38;;;;;;;0.60;0.60;;;9.20;99.90;;;;;;5076684;28;20043;-75
2023/05/17 06:09:06;;;;;;;0.50;0.50;;;9.30;99.90;;;;;;5107381;28;20401;-75
2023/05/17 06:11:32;;;;;;;3.55;3.03;;;9.30;99.90;;;;;;5107264;28;20044;-75
2023/05/17 06:13:57;;;;;;;0.50;0.50;;;9.30;99.90;;;;;;5084853;28;20158;-75
2023/05/17 06:16:23;;;;;;;3.40;3.10;;;9.30;99.90;;;;;;5070200;28;20070;-76
2023/05/17 06:18:49;;;;;;;0.35;0.35;;;9.30;99.90;;;;;;5053906;28;20084;-76
2023/05/17 06:21:16;;;;;;;0.50;0.50;;;9.20;99.90;;;;;;5053378;28;20047;-75
2023/05/17 06:23:42;;;;;;;0.70;0.70;;;9.10;99.90;;;;;;5053685;28;20469;-76
2023/05/17 06:26:09;;;;;;;0.55;0.55;;;9.10;99.90;;;;;;5069553;28;20116;-76
2023/05/17 06:28:38;;;;;;;0.40;0.40;;;9.10;99.90;;;;;;5069574;28;20045;-76
2023/05/17 06:31:04;;;;;;;0.60;0.60;;;9.10;99.90;;;;;;5070363;28;20128;-75
2023/05/17 06:33:29;;;;;;;4.90;3.72;;;9.20;99.90;;;;;;5070103;28;20564;-75
2023/05/17 06:35:57;;;;;;;0.50;0.50;;;9.20;99.90;;;;;;5053719;28;20794;-75
2023/05/17 06:38:24;;;;;;;0.40;0.40;;;9.20;99.90;;;;;;5053823;28;20044;-75
2023/05/17 06:40:57;;;;;;;0.40;0.40;;;9.30;99.90;;;;;;5054025;28;20083;-75
2023/05/17 06:43:23;;;;;;;0.40;0.40;;;9.30;99.90;;;;;;5069803;28;20520;-75
2023/05/17 06:45:49;;;;;;;0.70;0.70;;;9.40;99.90;;;;;;5070055;28;20068;-75
2023/05/17 06:48:15;;;;;;;;;;;9.40;99.90;;;;;;5070298;28;20045;-75
2023/05/17 06:50:41;;;;;;;0.30;0.30;;;9.50;99.90;;;;;;5069563;28;19942;-75
2023/05/17 06:53:07;;;;;;;2.28;1.60;;;9.50;99.90;;;;;;5069308;28;20173;-74
2023/05/17 06:55:32;;;;;;;0.60;0.60;;;9.60;99.90;;;;;;5069575;28;20041;-75
2023/05/17 06:57:59;;;;;;;0.50;0.50;;;9.60;99.90;;;;;;5069498;28;20051;-74
2023/05/17 07:00:24;;;;;;;1.05;1.05;;;9.60;99.90;;;;;;5069117;28;20048;-75
2023/05/17 07:02:51;;;;;;;0.30;0.30;;;9.80;99.90;;;;;;5072785;28;20044;-76
2023/05/17 07:05:16;;;;;;;;;;;9.80;99.90;;;;;;5073494;28;20051;-75
2023/05/17 07:07:42;;;;;;;0.50;0.50;;;9.90;99.90;;;;;;5089653;28;19923;-74
2023/05/17 07:10:08;;;;;;;0.52;0.52;;;10.10;99.90;;;;;;5089465;28;20092;-74
2023/05/17 07:12:33;;;;;;;0.40;0.40;;;10.20;99.90;;;;;;5106563;28;20048;-74
2023/05/17 07:14:59;;;;;;;0.40;0.40;;;10.30;99.90;;;;;;5092758;28;20048;-75
2023/05/17 07:17:25;;;;;;;0.40;0.40;;;10.40;99.90;;;;;;5052082;28;20040;-75
2023/05/17 07:19:51;;;;;;;0.28;0.28;;;10.40;99.90;;;;;;5056071;28;20472;-76
2023/05/17 07:22:17;;;;;;;0.40;0.40;;;10.50;99.90;;;;;;5069296;28;20048;-75
2023/05/17 07:24:44;;;;;;;0.20;0.20;;;10.50;99.90;;;;;;5068690;28;20083;-75
2023/05/17 07:27:10;;;;;;;0.40;0.40;;;10.60;99.90;;;;;;5068853;28;20045;-75
2023/05/17 07:29:35;;;;;;;0.30;0.30;;;10.60;99.90;;;;;;5069181;28;20050;-75
2023/05/17 07:32:01;;;;;;;0.30;0.30;;;10.60;99.90;;;;;;5069451;28;20052;-75
2023/05/17 07:34:27;;;;;;;2.67;2.50;;;10.60;99.90;;;;;;5052484;28;20044;-75
2023/05/17 07:36:52;;;;;;;0.40;0.40;;;10.50;99.90;;;;;;5054230;28;20113;-76
2023/05/17 07:39:18;;;;;;;0.32;0.32;;;10.50;99.90;;;;;;5069017;28;20040;-75
2023/05/17 07:41:44;;;;;;;0.40;0.40;;;10.60;99.90;;;;;;5068525;28;20051;-75
2023/05/17 07:44:10;;;;;;;0.40;0.40;;;10.70;99.90;;;;;;5078217;28;20120;-75
2023/05/17 07:46:36;;;;;;;0.40;0.40;;;10.80;99.90;;;;;;5048710;28;20037;-75
2023/05/17 07:49:01;;;;;;;0.38;0.38;;;10.80;99.90;;;;;;5060164;28;20493;-76
2023/05/17 07:51:27;;;;;;;0.50;0.50;;;10.90;99.90;;;;;;5051548;28;20044;-76
2023/05/17 07:53:53;;;;;;;0.40;0.40;;;10.90;99.90;;;;;;5068846;28;20380;-76
2023/05/17 07:56:18;;;;;;;0.40;0.40;;;10.80;99.90;;;;;;5069024;28;20078;-76
2023/05/17 07:58:44;;;;;;;0.30;0.30;;;10.90;99.90;;;;;;5071115;28;20505;-76
2023/05/17 08:01:10;;;;;;;4.57;1.05;;;10.90;99.90;;;;;;5105367;28;20067;-76
2023/05/17 08:03:36;;;;;;;1.65;1.55;;;10.90;99.90;;;;;;5071274;28;20126;-76
2023/05/17 08:06:02;;;;;;;0.63;0.63;;;11.00;99.90;;;;;;5089200;28;20100;-75
2023/05/17 08:08:27;;;;;;;0.50;0.50;;;11.00;99.90;;;;;;5088836;28;20042;-76
2023/05/17 08:10:53;;;;;;;0.68;0.47;;;11.00;99.90;;;;;;5072985;28;20044;-75
2023/05/17 08:13:19;;;;;;;0.50;0.50;;;11.10;99.90;;;;;;5106138;28;20050;-75
2023/05/17 08:15:44;;;;;;;0.20;0.20;;;11.10;99.90;;;;;;5068496;28;20044;-76
2023/05/17 08:18:10;;;;;;;0.40;0.40;;;11.10;99.90;;;;;;5051894;28;20076;-75
2023/05/17 08:20:36;;;;;;;0.30;0.30;;;11.10;99.90;;;;;;5067970;28;20048;-76
2023/05/17 08:23:02;;;;;;;;;;;11.20;99.90;;;;;;5070334;28;20040;-75
2023/05/17 08:25:27;;;;;;;0.40;0.40;;;11.40;99.90;;;;;;5067674;28;19932;-75
2023/05/17 08:27:53;;;;;;;0.30;0.30;;;11.40;99.90;;;;;;5051424;28;20055;-75
2023/05/17 08:30:19;;;;;;;0.22;0.22;;;11.30;99.90;;;;;;5035120;28;20048;-76
2023/05/17 08:32:44;;;;;;;0.30;0.30;;;11.40;99.90;;;;;;5051594;28;20048;-76
2023/05/17 08:35:11;;;;;;;0.40;0.40;;;11.60;99.90;;;;;;5068174;28;20430;-76
2023/05/17 08:37:36;;;;;;;;;;;11.60;99.90;;;;;;5068335;28;20036;-76
2023/05/17 08:40:03;;;;;;;0.30;0.30;;;11.70;99.90;;;;;;5083872;28;19928;-75
2023/05/17 08:42:29;;;;;;;0.32;0.32;;;11.60;99.90;;;;;;5059355;28;20052;-75
2023/05/17 08:44:55;;;;;;;0.40;0.40;;;11.80;99.90;;;;;;5059561;28;20751;-76
2023/05/17 08:47:28;;;;;;;1.30;1.20;;;12.20;99.90;;;;;;5067929;28;20140;-76
2023/05/17 08:50:03;;;;;;;0.30;0.30;;;12.40;99.90;;;;;;5068468;28;20528;-75
2023/05/17 08:52:33;;;;;;;0.30;0.30;;;12.20;99.80;;;;;;5067638;28;20044;-75
2023/05/17 08:55:04;;;;;;;0.20;0.20;;;12.10;99.50;;;;;;5070904;28;20043;-76
2023/05/17 08:57:32;;;;;;;0.30;0.30;;;12.00;99.90;;;;;;5072099;28;20055;-75
2023/05/17 09:00:14;;;;;;;0.38;0.38;;;12.00;99.90;;;;;;5088414;28;20128;-75
2023/05/17 09:02:41;;;;;;;0.38;0.38;;;12.00;99.90;;;;;;5088103;28;20047;-76
2023/05/17 09:05:07;;;;;;;0.35;0.35;;;12.20;99.90;;;;;;5105219;28;20068;-75
2023/05/17 09:07:34;;;;;;;0.20;0.20;;;12.30;99.90;;;;;;5105535;28;20047;-75
2023/05/17 09:10:04;;;;;;;0.30;0.30;;;12.20;99.90;;;;;;5105539;28;20040;-76
2023/05/17 09:12:34;;;;;;;0.20;0.20;;;12.10;99.90;;;;;;5072019;28;20055;-76
2023/05/17 09:15:22;;;;;;;0.30;0.30;;;12.00;99.90;;;;;;5090548;28;20044;-75
2023/05/17 09:17:53;;;;;;;0.93;0.93;;;11.80;99.90;;;;;;5067561;28;20504;-75
2023/05/17 09:20:33;;;;;;;0.50;0.50;;;11.90;99.90;;;;;;5067816;28;20051;-76
2023/05/17 09:23:06;;;;;;;0.40;0.40;;;12.00;99.90;;;;;;5067900;28;20123;-75
2023/05/17 09:25:32;;;;;;;0.73;0.73;;;12.10;99.90;;;;;;5067565;28;20048;-75
2023/05/17 09:28:02;;;;;;;0.22;0.22;;;12.40;99.90;;;;;;5068218;28;20071;-76
2023/05/17 09:30:29;;;;;;;0.40;0.40;;;12.40;99.00;;;;;;5068300;28;20097;-75
2023/05/17 09:32:59;;;;;;;0.30;0.30;;;12.50;99.40;;;;;;5034682;28;20067;-76
2023/05/17 09:35:31;;;;;;;0.82;0.82;;;12.60;99.90;;;;;;5035110;28;20051;-75
2023/05/17 09:38:04;;;;;;;0.20;0.20;;;12.50;99.60;;;;;;5052772;28;20048;-75
2023/05/17 09:40:30;;;;;;;0.30;0.30;;;12.40;99.90;;;;;;5046512;28;20049;-76
2023/05/17 09:42:56;;;;;;;0.50;0.50;;;12.30;99.90;;;;;;5066489;28;20055;-74
2023/05/17 09:45:23;;;;;;;0.30;0.30;;;12.30;99.90;;;;;;5071347;28;20041;-75
2023/05/17 09:47:49;;;;;;;;;;;12.30;99.90;;;;;;5069860;28;20515;-75
2023/05/17 09:50:19;;;;;;;0.30;0.30;;;12.40;99.90;;;;;;5070951;28;19924;-75
2023/05/17 09:52:45;;;;;;;0.40;0.40;;;12.50;99.10;;;;;;5068866;28;20055;-75
2023/05/17 09:55:11;;;;;;;0.40;0.40;;;12.30;99.30;;;;;;5070521;28;20516;-75
2023/05/17 09:57:39;;;;;;;0.30;0.30;;;12.30;97.90;;;;;;5070835;28;20105;-75
2023/05/17 10:00:10;;;;;;;0.20;0.20;;;12.50;96.80;;;;;;5071151;28;20127;-75
2023/05/17 10:02:37;;;;;;;2.53;1.95;;;12.70;99.40;;;;;;5070837;28;20036;-75
2023/05/17 10:05:11;;;;;;;0.40;0.40;;;12.80;98.20;;;;;;5070560;28;20126;-75
2023/05/17 10:07:37;;;;;;;0.40;0.40;;;12.80;99.60;;;;;;5070147;28;20049;-75
2023/05/17 10:10:04;;;;;;;0.50;0.50;;;12.80;99.80;;;;;;5071201;28;20153;-76
2023/05/17 10:12:33;;;;;;;0.40;0.40;;;12.80;99.90;;;;;;5070555;28;20067;-75
2023/05/17 10:15:00;;;;;;;0.40;0.40;;;12.70;99.00;;;;;;5070664;28;20067;-76
2023/05/17 10:17:29;;;;;;;0.88;0.73;;;12.80;99.90;;;;;;5070743;28;20221;-75
2023/05/17 10:19:56;;;;;;;0.30;0.30;;;12.80;98.80;;;;;;5053670;28;20506;-75
2023/05/17 10:22:22;;;;;;;0.40;0.40;;;12.70;97.60;;;;;;5070456;28;20084;-75
2023/05/17 10:24:50;;;;;;;0.30;0.30;;;12.60;96.50;;;;;;5067393;28;20049;-76
2023/05/17 10:27:16;;;;;;;0.30;0.30;;;12.50;96.50;;;;;;5050550;28;20533;-76
2023/05/17 10:29:43;;;;;;;0.40;0.40;;;12.40;97.20;;;;;;5050047;28;20167;-75
2023/05/17 10:32:12;;;;;;;0.30;0.30;;;12.40;95.60;;;;;;5050267;28;20486;-75
2023/05/17 10:34:38;;;;;;;0.30;0.30;;;12.60;99.80;;;;;;5063188;28;20048;-75
2023/05/17 10:37:05;;;;;;;1.25;1.15;;;12.70;99.70;;;;;;5070315;28;20082;-75
2023/05/17 10:39:33;;;;;;;0.35;0.35;;;12.90;99.00;;;;;;5070727;28;20117;-75
2023/05/17 10:42:06;;;;;;;0.30;0.30;;;13.00;97.10;;;;;;5072099;28;20078;-76
2023/05/17 10:44:32;;;;;;;0.47;0.47;;;12.90;96.90;;;;;;5081119;28;20486;-75
2023/05/17 10:46:59;;;;;;;1.05;1.05;;;12.80;98.50;;;;;;5069815;28;20044;-75
2023/05/17 10:49:32;;;;;;;0.43;0.43;;;12.60;99.90;;;;;;5074514;28;20134;-75
2023/05/17 10:52:10;;;;;;;0.57;0.57;;;12.60;97.90;;;;;;5079632;28;20040;-76
2023/05/17 10:54:39;;;;;;;0.30;0.30;;;12.50;97.70;;;;;;5074324;28;20041;-76
2023/05/17 10:57:06;;;;;;;0.35;0.35;;;12.60;99.90;;;;;;5072131;28;20125;-76
2023/05/17 10:59:32;;;;;;;0.45;0.45;;;12.70;97.80;;;;;;5069776;28;20182;-75
2023/05/17 11:02:05;;;;;;;0.20;0.20;;;13.00;98.20;;;;;;5069198;28;20121;-75
2023/05/17 11:04:36;;;;;;;0.40;0.40;;;13.10;97.60;;;;;;5069797;28;20374;-75
2023/05/17 11:07:31;;;;;;;0.20;0.20;;;13.10;96.70;;;;;;5069823;28;20487;-75
2023/05/17 11:10:04;;;;;;;0.40;0.40;;;13.10;95.70;;;;;;5069643;28;20051;-75
2023/05/17 11:12:35;;;;;;;0.73;0.68;;;13.10;97.00;;;;;;5069805;28;20083;-75
2023/05/17 11:15:22;;;;;;;0.30;0.30;;;12.90;94.40;;;;;;5053055;28;20468;-75
2023/05/17 11:17:53;;;;;;;0.30;0.30;;;13.00;96.90;;;;;;5069367;28;20059;-75
2023/05/17 11:20:25;;;;;;;0.30;0.30;;;13.20;96.40;;;;;;5069316;28;20051;-75
2023/05/17 11:23:04;;;;;;;0.30;0.30;;;13.40;95.80;;;;;;5068975;28;20389;-75
2023/05/17 11:25:35;;;;;;;0.30;0.30;;;13.30;95.80;;;;;;5052317;28;20084;-75
2023/05/17 11:28:16;;;;;;;0.40;0.40;;;13.20;93.90;;;;;;5069559;28;20123;-76
2023/05/17 11:30:50;;;;;;;2.35;2.15;;;13.00;95.00;;;;;;5068917;28;20094;-76
2023/05/17 11:33:16;;;;;;;0.65;0.65;;;13.00;95.00;;;;;;5069360;28;20044;-76
2023/05/17 11:35:43;;;;;;;0.50;0.50;;;13.20;95.30;;;;;;5051920;28;20044;-76
2023/05/17 11:38:26;;;;;;;0.30;0.30;;;13.40;94.70;;;;;;5069754;28;20428;-76
2023/05/17 11:40:54;;;;;;;0.50;0.50;;;13.20;93.90;;;;;;5051664;28;20123;-76
2023/05/17 11:43:24;;;;;;;0.30;0.30;;;12.90;94.20;;;;;;5064880;28;20052;-76
2023/05/17 11:46:00;;;;;;;0.32;0.32;;;13.10;94.90;;;;;;5069019;28;20131;-76
2023/05/17 11:48:28;;;;;;;0.27;0.27;;;13.30;94.50;;;;;;5069145;28;20079;-75
2023/05/17 11:50:55;;;;;;;0.40;0.40;;;13.40;93.10;;;;;;5068658;28;20040;-76
2023/05/17 11:53:21;;;;;;;0.98;0.98;;;13.40;94.80;;;;;;5068865;28;20498;-76
2023/05/17 11:55:51;;;;;;;0.45;0.38;;;13.30;95.40;;;;;;5068719;28;20435;-76
2023/05/17 11:58:25;;;;;;;0.30;0.30;;;13.30;94.30;;;;;;5070459;28;20059;-76
2023/05/17 12:00:56;;;;;;;0.98;0.98;;;13.60;94.80;;;;;;5067704;28;20040;-76
2023/05/17 12:03:25;;;;;;;2.03;0.95;;;14.00;93.40;;;;;;5068951;28;20055;-76
2023/05/17 12:06:00;;;;;;;0.30;0.30;;;14.00;92.90;;;;;;5068275;28;20564;-76
2023/05/17 12:08:26;;;;;;;0.30;0.30;;;13.60;92.10;;;;;;5068877;28;20371;-76
2023/05/17 12:10:52;;;;;;;0.50;0.50;;;13.50;91.60;;;;;;5069156;28;20043;-76
2023/05/17 12:13:19;;;;;;;0.20;0.20;;;13.60;93.90;;;;;;5051962;28;20040;-76
2023/05/17 12:15:54;;;;;;;0.20;0.20;;;13.60;94.20;;;;;;5068562;28;20136;-76
2023/05/17 12:18:20;;;;;;;0.30;0.30;;;13.60;94.10;;;;;;5068699;28;20504;-75
2023/05/17 12:20:56;;;;;;;0.40;0.40;;;13.50;92.50;;;;;;5068172;28;20052;-76
2023/05/17 12:23:52;;;;;;;0.43;0.43;;;13.40;93.50;;;;;;5067935;28;20048;-75
2023/05/17 12:26:23;;;;;;;0.30;0.30;;;13.80;93.20;;;;;;5063427;28;20053;-75
2023/05/17 12:28:57;;;;;;;0.38;0.38;;;14.20;91.60;;;;;;5068188;28;20045;-76
2023/05/17 12:31:27;;;;;;;0.40;0.28;;;14.20;91.50;;;;;;5068364;28;20427;-76
2023/05/17 12:33:54;;;;;;;0.30;0.30;;;14.00;91.20;;;;;;5068062;28;20101;-75
2023/05/17 12:36:21;;;;;;;0.30;0.30;;;14.00;92.10;;;;;;5051793;28;20550;-76
2023/05/17 12:38:47;;;;;;;1.75;0.63;;;14.10;91.40;;;;;;5067990;28;20055;-75
2023/05/17 12:41:14;;;;;;;;;;;14.20;91.60;;;;;;5082458;28;20467;-76
2023/05/17 12:43:42;;;;;;;0.40;0.40;;;14.10;91.40;;;;;;5073292;28;19969;-76
2023/05/17 12:46:19;;;;;;;1.27;0.63;;;14.10;93.40;;;;;;5068722;28;20077;-76
2023/05/17 12:48:46;;;;;;;0.30;0.30;;;13.90;91.30;;;;;;5057639;28;20249;-76
2023/05/17 12:51:22;;;;;;;0.28;0.28;;;13.80;91.30;;;;;;5068649;28;20414;-75
2023/05/17 12:53:53;;;;;;;1.23;1.23;;;13.60;94.70;;;;;;5050808;28;20079;-76
2023/05/17 12:56:26;;;;;;;0.30;0.30;;;13.40;91.60;;;;;;5068087;28;20128;-76
2023/05/17 12:59:11;;;;;;;0.30;0.30;;;13.10;91.70;;;;;;5067414;28;20044;-75